sensor_id;sensor_type;location;lat;lon;timestamp;pressure;altitude;pressure_sealevel;temperature;humidity
4586;BME280;2305;50.118;8.952;2023-04-07T00:00:07;100602.63;;;8.75;100.00
4586;BME280;2305;50.118;8.952;2023-04-07T00:02:37;100603.56;;;8.74;100.00
4586;BME280;2305;50.118;8.952;2023-04-07T00:05:09;100598.41;;;8.72;100.00
4586;BME280;2305;50.118;8.952;2023-04-07T00:07:44;100601.91;;;8.73;100.00
4586;BME280;2305;50.118;8.952;2023-04-07T00:10:22;100594.13;;;8.71;100.00
4586;BME280;2305;50.118;8.952;2023-04-07T00:12:50;100587.09;;;8.72;100.00
4586;BME280;2305;50.118;8.952;2023-04-07T00:15:18;100596.66;;;8.73;100.00
4586;BME280;2305;50.118;8.952;2023-04-07T00:17:51;100593.50;;;8.68;100.00
4586;BME280;2305;50.118;8.952;2023-04-07T00:20:23;100593.28;;;8.71;100.00
4586;BME280;2305;50.118;8.952;2023-04-07T00:22:54;100594.97;;;8.72;100.00
4586;BME280;2305;50.118;8.952;2023-04-07T00:25:23;100587.28;;;8.69;100.00
4586;BME280;2305;50.118;8.952;2023-04-07T00:27:53;100580.59;;;8.65;100.00
4586;BME280;2305;50.118;8.952;2023-04-07T00:30:22;100581.72;;;8.61;100.00
4586;BME280;2305;50.118;8.952;2023-04-07T00:32:50;100579.09;;;8.61;100.00
4586;BME280;2305;50.118;8.952;2023-04-07T00:35:18;100577.03;;;8.53;100.00
4586;BME280;2305;50.118;8.952;2023-04-07T00:37:46;100572.69;;;8.52;100.00
4586;BME280;2305;50.118;8.952;2023-04-07T00:40:17;100571.66;;;8.55;100.00
4586;BME280;2305;50.118;8.952;2023-04-07T00:42:45;100562.53;;;8.60;100.00
4586;BME280;2305;50.118;8.952;2023-04-07T00:45:14;100569.78;;;8.57;100.00
4586;BME280;2305;50.118;8.952;2023-04-07T00:47:42;100567.97;;;8.57;100.00
4586;BME280;2305;50.118;8.952;2023-04-07T00:50:10;100562.00;;;8.43;100.00
4586;BME280;2305;50.118;8.952;2023-04-07T00:52:39;100561.47;;;8.38;100.00
4586;BME280;2305;50.118;8.952;2023-04-07T00:55:08;100561.47;;;8.38;100.00
4586;BME280;2305;50.118;8.952;2023-04-07T00:57:40;100556.41;;;8.35;100.00
4586;BME280;2305;50.118;8.952;2023-04-07T01:00:09;100548.22;;;8.27;100.00
4586;BME280;2305;50.118;8.952;2023-04-07T01:02:41;100546.13;;;8.32;100.00
4586;BME280;2305;50.118;8.952;2023-04-07T01:05:15;100543.84;;;8.27;100.00
4586;BME280;2305;50.118;8.952;2023-04-07T01:07:54;100541.22;;;8.27;100.00
4586;BME280;2305;50.118;8.952;2023-04-07T01:10:32;100542.38;;;8.36;100.00
4586;BME280;2305;50.118;8.952;2023-04-07T01:13:22;100530.94;;;8.24;100.00
4586;BME280;2305;50.118;8.952;2023-04-07T01:16:04;100527.13;;;8.28;100.00
4586;BME280;2305;50.118;8.952;2023-04-07T01:18:40;100528.72;;;8.31;100.00
4586;BME280;2305;50.118;8.952;2023-04-07T01:21:13;100523.13;;;8.35;100.00
4586;BME280;2305;50.118;8.952;2023-04-07T01:24:02;100522.84;;;8.27;100.00
4586;BME280;2305;50.118;8.952;2023-04-07T01:26:32;100528.31;;;8.24;100.00
4586;BME280;2305;50.118;8.952;2023-04-07T01:29:20;100525.69;;;8.24;100.00
4586;BME280;2305;50.118;8.952;2023-04-07T01:31:53;100524.75;;;8.25;100.00
4586;BME280;2305;50.118;8.952;2023-04-07T01:34:25;100525.69;;;8.24;100.00
4586;BME280;2305;50.118;8.952;2023-04-07T01:36:55;100519.50;;;8.25;100.00
4586;BME280;2305;50.118;8.952;2023-04-07T01:39:25;100521.97;;;8.27;100.00
4586;BME280;2305;50.118;8.952;2023-04-07T01:41:54;100524.91;;;8.35;100.00
4586;BME280;2305;50.118;8.952;2023-04-07T01:44:25;100523.13;;;8.35;100.00
4586;BME280;2305;50.118;8.952;2023-04-07T01:46:54;100515.16;;;8.37;100.00
4586;BME280;2305;50.118;8.952;2023-04-07T01:49:24;100510.97;;;8.22;100.00
4586;BME280;2305;50.118;8.952;2023-04-07T01:51:53;100519.34;;;8.27;100.00
4586;BME280;2305;50.118;8.952;2023-04-07T01:54:22;100514.97;;;8.27;100.00
4586;BME280;2305;50.118;8.952;2023-04-07T01:56:51;100511.81;;;8.22;100.00
4586;BME280;2305;50.118;8.952;2023-04-07T01:59:20;100514.94;;;8.15;100.00
4586;BME280;2305;50.118;8.952;2023-04-07T02:01:49;100509.88;;;8.12;100.00
4586;BME280;2305;50.118;8.952;2023-04-07T02:04:24;100508.75;;;8.16;100.00
4586;BME280;2305;50.118;8.952;2023-04-07T02:06:59;100508.44;;;8.08;100.00
4586;BME280;2305;50.118;8.952;2023-04-07T02:09:37;100498.34;;;8.02;100.00
4586;BME280;2305;50.118;8.952;2023-04-07T02:12:11;100498.97;;;8.05;100.00
4586;BME280;2305;50.118;8.952;2023-04-07T02:14:57;100499.06;;;8.04;100.00
4586;BME280;2305;50.118;8.952;2023-04-07T02:17:31;100489.00;;;7.98;100.00
4586;BME280;2305;50.118;8.952;2023-04-07T02:20:03;100493.72;;;8.05;100.00
4586;BME280;2305;50.118;8.952;2023-04-07T02:22:33;100497.19;;;8.06;100.00
4586;BME280;2305;50.118;8.952;2023-04-07T02:25:19;100493.72;;;8.05;100.00
4586;BME280;2305;50.118;8.952;2023-04-07T02:27:48;100486.91;;;8.03;100.00
4586;BME280;2305;50.118;8.952;2023-04-07T02:30:18;100492.25;;;8.01;100.00
4586;BME280;2305;50.118;8.952;2023-04-07T02:32:47;100485.66;;;7.96;100.00
4586;BME280;2305;50.118;8.952;2023-04-07T02:35:16;100485.75;;;7.94;100.00
4586;BME280;2305;50.118;8.952;2023-04-07T02:37:49;100490.38;;;8.03;100.00
4586;BME280;2305;50.118;8.952;2023-04-07T02:40:17;100489.22;;;8.07;100.00
4586;BME280;2305;50.118;8.952;2023-04-07T02:42:45;100485.41;;;7.99;100.00
4586;BME280;2305;50.118;8.952;2023-04-07T02:45:14;100486.06;;;8.02;100.00
4586;BME280;2305;50.118;8.952;2023-04-07T02:47:42;100479.97;;;8.02;100.00
4586;BME280;2305;50.118;8.952;2023-04-07T02:50:15;100480.94;;;8.01;100.00
4586;BME280;2305;50.118;8.952;2023-04-07T02:52:43;100483.88;;;7.96;100.00
4586;BME280;2305;50.118;8.952;2023-04-07T02:55:13;100474.00;;;8.00;100.00
4586;BME280;2305;50.118;8.952;2023-04-07T02:57:41;100479.88;;;8.03;100.00
4586;BME280;2305;50.118;8.952;2023-04-07T03:00:24;100471.66;;;7.95;100.00
4586;BME280;2305;50.118;8.952;2023-04-07T03:03:14;100473.25;;;7.98;100.00
4586;BME280;2305;50.118;8.952;2023-04-07T03:05:55;100475.78;;;7.99;100.00
4586;BME280;2305;50.118;8.952;2023-04-07T03:08:23;100472.31;;;7.99;100.00
4586;BME280;2305;50.118;8.952;2023-04-07T03:10:52;100472.13;;;8.02;100.00
4586;BME280;2305;50.118;8.952;2023-04-07T03:13:26;100466.88;;;8.02;100.00
4586;BME280;2305;50.118;8.952;2023-04-07T03:15:55;100464.97;;;8.04;100.00
4586;BME280;2305;50.118;8.952;2023-04-07T03:18:29;100467.06;;;7.99;100.00
4586;BME280;2305;50.118;8.952;2023-04-07T03:21:01;100470.53;;;7.99;100.00
4586;BME280;2305;50.118;8.952;2023-04-07T03:23:29;100463.19;;;8.04;100.00
4586;BME280;2305;50.118;8.952;2023-04-07T03:25:58;100464.78;;;8.07;100.00
4586;BME280;2305;50.118;8.952;2023-04-07T03:28:31;100457.72;;;8.07;100.00
4586;BME280;2305;50.118;8.952;2023-04-07T03:31:03;100453.41;;;8.06;100.00
4586;BME280;2305;50.118;8.952;2023-04-07T03:33:33;100460.34;;;8.07;100.00
4586;BME280;2305;50.118;8.952;2023-04-07T03:36:03;100457.41;;;8.12;100.00
4586;BME280;2305;50.118;8.952;2023-04-07T03:38:32;100457.41;;;8.12;100.00
4586;BME280;2305;50.118;8.952;2023-04-07T03:41:02;100458.44;;;8.09;100.00
4586;BME280;2305;50.118;8.952;2023-04-07T03:43:32;100452.16;;;8.12;100.00
4586;BME280;2305;50.118;8.952;2023-04-07T03:46:00;100452.06;;;8.13;100.00
4586;BME280;2305;50.118;8.952;2023-04-07T03:48:29;100451.97;;;8.15;100.00
4586;BME280;2305;50.118;8.952;2023-04-07T03:51:06;100449.53;;;8.12;100.00
4586;BME280;2305;50.118;8.952;2023-04-07T03:53:35;100456.34;;;8.14;100.00
4586;BME280;2305;50.118;8.952;2023-04-07T03:56:21;100452.59;;;8.18;100.00
4586;BME280;2305;50.118;8.952;2023-04-07T03:58:52;100457.06;;;8.16;100.00
4586;BME280;2305;50.118;8.952;2023-04-07T04:01:26;100453.13;;;8.23;100.00
4586;BME280;2305;50.118;8.952;2023-04-07T04:03:56;100449.66;;;8.23;100.00
4586;BME280;2305;50.118;8.952;2023-04-07T04:06:28;100455.97;;;8.20;100.00
4586;BME280;2305;50.118;8.952;2023-04-07T04:09:06;100453.34;;;8.20;100.00
4586;BME280;2305;50.118;8.952;2023-04-07T04:11:38;100452.38;;;8.21;100.00
4586;BME280;2305;50.118;8.952;2023-04-07T04:14:07;100452.50;;;8.20;100.00
4586;BME280;2305;50.118;8.952;2023-04-07T04:16:40;100448.72;;;8.11;100.00
4586;BME280;2305;50.118;8.952;2023-04-07T04:19:22;100448.81;;;8.10;100.00
4586;BME280;2305;50.118;8.952;2023-04-07T04:21:51;100447.75;;;8.12;100.00
4586;BME280;2305;50.118;8.952;2023-04-07T04:24:21;100443.84;;;8.18;100.00
4586;BME280;2305;50.118;8.952;2023-04-07T04:26:49;100456.81;;;8.21;100.00
4586;BME280;2305;50.118;8.952;2023-04-07T04:29:17;100449.97;;;8.18;100.00
4586;BME280;2305;50.118;8.952;2023-04-07T04:31:45;100454.28;;;8.19;100.00
4586;BME280;2305;50.118;8.952;2023-04-07T04:34:13;100458.59;;;8.20;100.00
4586;BME280;2305;50.118;8.952;2023-04-07T04:36:42;100453.13;;;8.23;100.00
4586;BME280;2305;50.118;8.952;2023-04-07T04:39:12;100458.88;;;8.16;100.00
4586;BME280;2305;50.118;8.952;2023-04-07T04:41:40;100458.59;;;8.20;100.00
4586;BME280;2305;50.118;8.952;2023-04-07T04:44:09;100458.50;;;8.22;100.00
4586;BME280;2305;50.118;8.952;2023-04-07T04:46:43;100460.66;;;8.15;100.00
4586;BME280;2305;50.118;8.952;2023-04-07T04:49:12;100460.34;;;8.20;100.00
4586;BME280;2305;50.118;8.952;2023-04-07T04:51:42;100467.69;;;8.15;100.00
4586;BME280;2305;50.118;8.952;2023-04-07T04:54:18;100460.88;;;8.12;100.00
4586;BME280;2305;50.118;8.952;2023-04-07T04:56:46;100464.31;;;8.13;100.00
4586;BME280;2305;50.118;8.952;2023-04-07T04:59:18;100466.47;;;8.20;100.00
4586;BME280;2305;50.118;8.952;2023-04-07T05:01:57;100457.63;;;8.21;100.00
4586;BME280;2305;50.118;8.952;2023-04-07T05:04:25;100464.56;;;8.22;100.00
4586;BME280;2305;50.118;8.952;2023-04-07T05:07:01;100470.09;;;8.18;100.00
4586;BME280;2305;50.118;8.952;2023-04-07T05:09:33;100469.78;;;8.10;100.00
4586;BME280;2305;50.118;8.952;2023-04-07T05:12:03;100466.75;;;8.16;100.00
4586;BME280;2305;50.118;8.952;2023-04-07T05:14:37;100459.84;;;8.15;100.00
4586;BME280;2305;50.118;8.952;2023-04-07T05:17:07;100466.13;;;8.12;100.00
4586;BME280;2305;50.118;8.952;2023-04-07T05:19:35;100468.94;;;8.09;100.00
4586;BME280;2305;50.118;8.952;2023-04-07T05:22:10;100466.31;;;8.09;100.00
4586;BME280;2305;50.118;8.952;2023-04-07T05:24:45;100463.41;;;8.14;100.00
4586;BME280;2305;50.118;8.952;2023-04-07T05:27:13;100464.56;;;8.10;100.00
4586;BME280;2305;50.118;8.952;2023-04-07T05:29:44;100468.13;;;8.09;100.00
4586;BME280;2305;50.118;8.952;2023-04-07T05:32:21;100466.84;;;8.14;100.00
4586;BME280;2305;50.118;8.952;2023-04-07T05:34:51;100460.88;;;8.12;100.00
4586;BME280;2305;50.118;8.952;2023-04-07T05:37:20;100460.78;;;8.14;100.00
4586;BME280;2305;50.118;8.952;2023-04-07T05:39:54;100456.56;;;8.11;100.00
4586;BME280;2305;50.118;8.952;2023-04-07T05:42:22;100453.81;;;8.13;100.00
4586;BME280;2305;50.118;8.952;2023-04-07T05:44:53;100458.59;;;8.20;100.00
4586;BME280;2305;50.118;8.952;2023-04-07T05:47:23;100461.13;;;8.22;100.00
4586;BME280;2305;50.118;8.952;2023-04-07T05:49:51;100456.06;;;8.31;100.00
4586;BME280;2305;50.118;8.952;2023-04-07T05:52:22;100469.63;;;8.25;100.00
4586;BME280;2305;50.118;8.952;2023-04-07T05:55:03;100463.09;;;8.31;100.00
4586;BME280;2305;50.118;8.952;2023-04-07T05:57:31;100455.75;;;8.36;100.00
4586;BME280;2305;50.118;8.952;2023-04-07T06:00:02;100451.75;;;8.43;100.00
4586;BME280;2305;50.118;8.952;2023-04-07T06:02:39;100460.09;;;8.48;100.00
4586;BME280;2305;50.118;8.952;2023-04-07T06:05:14;100462.53;;;8.51;100.00
4586;BME280;2305;50.118;8.952;2023-04-07T06:07:43;100459.38;;;8.46;100.00
4586;BME280;2305;50.118;8.952;2023-04-07T06:10:14;100456.13;;;8.42;100.00
4586;BME280;2305;50.118;8.952;2023-04-07T06:12:43;100458.03;;;8.40;100.00
4586;BME280;2305;50.118;8.952;2023-04-07T06:15:11;100458.44;;;8.47;100.00
4586;BME280;2305;50.118;8.952;2023-04-07T06:17:39;100455.91;;;8.45;100.00
4586;BME280;2305;50.118;8.952;2023-04-07T06:20:07;100457.59;;;8.46;100.00
4586;BME280;2305;50.118;8.952;2023-04-07T06:22:38;100463.47;;;8.50;100.00
4586;BME280;2305;50.118;8.952;2023-04-07T06:25:09;100464.94;;;8.54;100.00
4586;BME280;2305;50.118;8.952;2023-04-07T06:27:40;100459.47;;;8.57;100.00
4586;BME280;2305;50.118;8.952;2023-04-07T06:30:09;100467.22;;;8.58;100.00
4586;BME280;2305;50.118;8.952;2023-04-07T06:32:39;100464.81;;;8.55;100.00
4586;BME280;2305;50.118;8.952;2023-04-07T06:35:07;100462.59;;;8.62;100.00
4586;BME280;2305;50.118;8.952;2023-04-07T06:37:38;100467.03;;;8.61;100.00
4586;BME280;2305;50.118;8.952;2023-04-07T06:40:07;100467.22;;;8.71;100.00
4586;BME280;2305;50.118;8.952;2023-04-07T06:42:35;100472.22;;;8.74;100.00
4586;BME280;2305;50.118;8.952;2023-04-07T06:45:12;100466.25;;;8.72;100.00
4586;BME280;2305;50.118;8.952;2023-04-07T06:47:41;100469.94;;;8.69;100.00
4586;BME280;2305;50.118;8.952;2023-04-07T06:50:09;100474.56;;;8.66;100.00
4586;BME280;2305;50.118;8.952;2023-04-07T06:52:37;100479.19;;;8.62;100.00
4586;BME280;2305;50.118;8.952;2023-04-07T06:55:07;100472.66;;;8.68;100.00
4586;BME280;2305;50.118;8.952;2023-04-07T06:57:37;100474.88;;;8.74;100.00
4586;BME280;2305;50.118;8.952;2023-04-07T07:00:08;100479.72;;;8.67;100.00
4586;BME280;2305;50.118;8.952;2023-04-07T07:02:41;100476.47;;;8.64;100.00
4586;BME280;2305;50.118;8.952;2023-04-07T07:05:09;100480.97;;;8.62;100.00
4586;BME280;2305;50.118;8.952;2023-04-07T07:07:37;100472.59;;;8.57;100.00
4586;BME280;2305;50.118;8.952;2023-04-07T07:10:08;100477.63;;;8.60;100.00
4586;BME280;2305;50.118;8.952;2023-04-07T07:12:38;100477.84;;;8.57;100.00
4586;BME280;2305;50.118;8.952;2023-04-07T07:15:08;100477.09;;;8.55;100.00
4586;BME280;2305;50.118;8.952;2023-04-07T07:17:36;100480.78;;;8.65;100.00
4586;BME280;2305;50.118;8.952;2023-04-07T07:20:07;100479.59;;;8.69;100.00
4586;BME280;2305;50.118;8.952;2023-04-07T07:22:35;100484.84;;;8.69;100.00
4586;BME280;2305;50.118;8.952;2023-04-07T07:25:05;100484.13;;;8.67;100.00
4586;BME280;2305;50.118;8.952;2023-04-07T07:27:33;100482.97;;;8.71;100.00
4586;BME280;2305;50.118;8.952;2023-04-07T07:30:03;100488.94;;;8.73;100.00
4586;BME280;2305;50.118;8.952;2023-04-07T07:32:32;100494.72;;;8.78;100.00
4586;BME280;2305;50.118;8.952;2023-04-07T07:35:00;100485.44;;;8.85;100.00
4586;BME280;2305;50.118;8.952;2023-04-07T07:37:31;100488.19;;;8.83;100.00
4586;BME280;2305;50.118;8.952;2023-04-07T07:40:00;100486.28;;;8.85;100.00
4586;BME280;2305;50.118;8.952;2023-04-07T07:42:29;100490.84;;;8.94;100.00
4586;BME280;2305;50.118;8.952;2023-04-07T07:44:58;100491.31;;;8.88;100.00
4586;BME280;2305;50.118;8.952;2023-04-07T07:47:26;100502.47;;;8.92;100.00
4586;BME280;2305;50.118;8.952;2023-04-07T07:49:54;100497.41;;;8.88;100.00
4586;BME280;2305;50.118;8.952;2023-04-07T07:52:22;100506.41;;;8.97;100.00
4586;BME280;2305;50.118;8.952;2023-04-07T07:54:52;100508.63;;;9.03;100.00
4586;BME280;2305;50.118;8.952;2023-04-07T07:57:20;100505.75;;;9.06;100.00
4586;BME280;2305;50.118;8.952;2023-04-07T07:59:48;100507.84;;;9.13;100.00
4586;BME280;2305;50.118;8.952;2023-04-07T08:02:16;100508.75;;;9.12;100.00
4586;BME280;2305;50.118;8.952;2023-04-07T08:04:44;100510.78;;;9.09;100.00
4586;BME280;2305;50.118;8.952;2023-04-07T08:07:13;100509.16;;;9.19;100.00
4586;BME280;2305;50.118;8.952;2023-04-07T08:09:41;100509.16;;;9.19;100.00
4586;BME280;2305;50.118;8.952;2023-04-07T08:12:11;100519.44;;;9.22;100.00
4586;BME280;2305;50.118;8.952;2023-04-07T08:14:41;100515.88;;;9.23;100.00
4586;BME280;2305;50.118;8.952;2023-04-07T08:17:09;100519.34;;;9.23;100.00
4586;BME280;2305;50.118;8.952;2023-04-07T08:19:38;100526.78;;;9.29;100.00
4586;BME280;2305;50.118;8.952;2023-04-07T08:22:06;100524.78;;;9.33;100.00
4586;BME280;2305;50.118;8.952;2023-04-07T08:24:38;100525.41;;;9.36;100.00
4586;BME280;2305;50.118;8.952;2023-04-07T08:27:12;100531.88;;;9.43;100.00
4586;BME280;2305;50.118;8.952;2023-04-07T08:29:40;100529.97;;;9.45;100.00
4586;BME280;2305;50.118;8.952;2023-04-07T08:32:09;100525.44;;;9.47;100.00
4586;BME280;2305;50.118;8.952;2023-04-07T08:34:37;100536.13;;;9.57;100.00
4586;BME280;2305;50.118;8.952;2023-04-07T08:37:05;100530.66;;;9.60;100.00
4586;BME280;2305;50.118;8.952;2023-04-07T08:39:35;100529.69;;;9.61;100.00
4586;BME280;2305;50.118;8.952;2023-04-07T08:42:05;100529.84;;;9.70;100.00
4586;BME280;2305;50.118;8.952;2023-04-07T08:44:37;100526.00;;;9.74;100.00
4586;BME280;2305;50.118;8.952;2023-04-07T08:47:05;100529.66;;;9.84;100.00
4586;BME280;2305;50.118;8.952;2023-04-07T08:49:38;100540.53;;;9.91;100.00
4586;BME280;2305;50.118;8.952;2023-04-07T08:52:13;100541.25;;;9.93;100.00
4586;BME280;2305;50.118;8.952;2023-04-07T08:54:43;100534.94;;;9.95;100.00
4586;BME280;2305;50.118;8.952;2023-04-07T08:57:12;100539.97;;;9.98;100.00
4586;BME280;2305;50.118;8.952;2023-04-07T08:59:46;100534.47;;;10.01;100.00
4586;BME280;2305;50.118;8.952;2023-04-07T09:02:18;100536.38;;;9.99;100.00
4586;BME280;2305;50.118;8.952;2023-04-07T09:04:46;100540.25;;;10.06;100.00
4586;BME280;2305;50.118;8.952;2023-04-07T09:07:14;100537.28;;;10.11;100.00
4586;BME280;2305;50.118;8.952;2023-04-07T09:09:45;100541.94;;;10.07;100.00
4586;BME280;2305;50.118;8.952;2023-04-07T09:12:13;100542.16;;;10.04;100.00
4586;BME280;2305;50.118;8.952;2023-04-07T09:14:41;100534.56;;;10.00;100.00
4586;BME280;2305;50.118;8.952;2023-04-07T09:17:10;100535.47;;;10.11;100.00
4586;BME280;2305;50.118;8.952;2023-04-07T09:19:38;100538.06;;;10.00;100.00
4586;BME280;2305;50.118;8.952;2023-04-07T09:22:10;100542.63;;;9.98;100.00
4586;BME280;2305;50.118;8.952;2023-04-07T09:24:40;100545.53;;;10.06;100.00
4586;BME280;2305;50.118;8.952;2023-04-07T09:27:10;100541.63;;;10.23;100.00
4586;BME280;2305;50.118;8.952;2023-04-07T09:29:44;100542.94;;;10.39;100.00
4586;BME280;2305;50.118;8.952;2023-04-07T09:32:34;100545.81;;;10.58;100.00
4586;BME280;2305;50.118;8.952;2023-04-07T09:35:03;100540.44;;;10.71;100.00
4586;BME280;2305;50.118;8.952;2023-04-07T09:37:31;100544.88;;;10.70;100.00
4586;BME280;2305;50.118;8.952;2023-04-07T09:40:01;100539.25;;;10.75;100.00
4586;BME280;2305;50.118;8.952;2023-04-07T09:42:31;100541.25;;;10.82;100.00
4586;BME280;2305;50.118;8.952;2023-04-07T09:45:01;100551.19;;;10.90;100.00
4586;BME280;2305;50.118;8.952;2023-04-07T09:47:31;100547.59;;;10.91;100.00
4586;BME280;2305;50.118;8.952;2023-04-07T09:50:00;100544.59;;;10.95;100.00
4586;BME280;2305;50.118;8.952;2023-04-07T09:52:50;100544.38;;;10.98;100.00
4586;BME280;2305;50.118;8.952;2023-04-07T09:55:20;100553.13;;;10.88;100.00
4586;BME280;2305;50.118;8.952;2023-04-07T09:57:51;100547.72;;;10.89;100.00
4586;BME280;2305;50.118;8.952;2023-04-07T10:00:21;100550.50;;;10.88;100.00
4586;BME280;2305;50.118;8.952;2023-04-07T10:02:51;100550.00;;;10.83;100.00
4586;BME280;2305;50.118;8.952;2023-04-07T10:05:20;100546.66;;;10.81;100.00
4586;BME280;2305;50.118;8.952;2023-04-07T10:07:51;100549.78;;;10.75;100.00
4586;BME280;2305;50.118;8.952;2023-04-07T10:10:20;100545.94;;;10.68;100.00
4586;BME280;2305;50.118;8.952;2023-04-07T10:12:48;100552.88;;;10.58;100.00
4586;BME280;2305;50.118;8.952;2023-04-07T10:15:16;100552.88;;;10.47;100.00
4586;BME280;2305;50.118;8.952;2023-04-07T10:17:48;100557.31;;;10.46;100.00
4586;BME280;2305;50.118;8.952;2023-04-07T10:20:20;100563.66;;;10.44;100.00
4586;BME280;2305;50.118;8.952;2023-04-07T10:22:50;100557.56;;;10.43;100.00
4586;BME280;2305;50.118;8.952;2023-04-07T10:25:21;100556.34;;;10.47;100.00
4586;BME280;2305;50.118;8.952;2023-04-07T10:27:57;100553.03;;;10.56;100.00
4586;BME280;2305;50.118;8.952;2023-04-07T10:30:28;100555.63;;;10.67;100.00
4586;BME280;2305;50.118;8.952;2023-04-07T10:32:58;100559.72;;;10.71;100.00
4586;BME280;2305;50.118;8.952;2023-04-07T10:36:03;100555.66;;;10.78;100.00
4586;BME280;2305;50.118;8.952;2023-04-07T10:38:33;100567.38;;;10.85;100.00
4586;BME280;2305;50.118;8.952;2023-04-07T10:41:30;100564.88;;;10.84;100.00
4586;BME280;2305;50.118;8.952;2023-04-07T10:43:59;100572.56;;;10.87;100.00
4586;BME280;2305;50.118;8.952;2023-04-07T10:47:02;100572.66;;;10.85;100.00
4586;BME280;2305;50.118;8.952;2023-04-07T10:49:31;100571.47;;;10.78;100.00
4586;BME280;2305;50.118;8.952;2023-04-07T10:52:24;100575.78;;;10.79;100.00
4586;BME280;2305;50.118;8.952;2023-04-07T10:55:31;100579.13;;;10.81;100.00
4586;BME280;2305;50.118;8.952;2023-04-07T10:58:22;100578.31;;;10.81;100.00
4586;BME280;2305;50.118;8.952;2023-04-07T11:01:18;100578.03;;;10.84;100.00
4586;BME280;2305;50.118;8.952;2023-04-07T11:03:57;100581.38;;;10.86;100.00
4586;BME280;2305;50.118;8.952;2023-04-07T11:06:26;100588.22;;;10.88;100.00
4586;BME280;2305;50.118;8.952;2023-04-07T11:08:56;100590.75;;;10.90;100.00
4586;BME280;2305;50.118;8.952;2023-04-07T11:11:36;100583.91;;;10.87;100.00
4586;BME280;2305;50.118;8.952;2023-04-07T11:14:05;100579.59;;;10.86;100.00
4586;BME280;2305;50.118;8.952;2023-04-07T11:16:35;100582.94;;;10.88;100.00
4586;BME280;2305;50.118;8.952;2023-04-07T11:19:03;100585.22;;;10.93;100.00
4586;BME280;2305;50.118;8.952;2023-04-07T11:21:33;100580.53;;;10.96;100.00
4586;BME280;2305;50.118;8.952;2023-04-07T11:24:04;100584.41;;;10.92;100.00
4586;BME280;2305;50.118;8.952;2023-04-07T11:26:39;100586.06;;;10.93;100.00
4586;BME280;2305;50.118;8.952;2023-04-07T11:29:07;100587.38;;;10.99;100.00
4586;BME280;2305;50.118;8.952;2023-04-07T11:31:38;100590.63;;;11.02;100.00
4586;BME280;2305;50.118;8.952;2023-04-07T11:34:06;100591.56;;;11.01;100.00
4586;BME280;2305;50.118;8.952;2023-04-07T11:36:38;100581.75;;;11.03;100.00
4586;BME280;2305;50.118;8.952;2023-04-07T11:39:20;100592.50;;;11.11;100.00
4586;BME280;2305;50.118;8.952;2023-04-07T11:41:49;100582.94;;;11.10;100.00
4586;BME280;2305;50.118;8.952;2023-04-07T11:44:17;100590.00;;;11.21;100.00
4586;BME280;2305;50.118;8.952;2023-04-07T11:46:53;100591.41;;;11.36;100.00
4586;BME280;2305;50.118;8.952;2023-04-07T11:49:22;100588.63;;;11.48;100.00
4586;BME280;2305;50.118;8.952;2023-04-07T11:51:57;100593.41;;;11.65;100.00
4586;BME280;2305;50.118;8.952;2023-04-07T11:54:26;100594.69;;;11.71;100.00
4586;BME280;2305;50.118;8.952;2023-04-07T11:56:54;100598.66;;;11.65;100.00
4586;BME280;2305;50.118;8.952;2023-04-07T11:59:28;100589.03;;;11.75;100.00
4586;BME280;2305;50.118;8.952;2023-04-07T12:01:57;100593.06;;;11.90;100.00
4586;BME280;2305;50.118;8.952;2023-04-07T12:04:25;100588.41;;;12.03;100.00
4586;BME280;2305;50.118;8.952;2023-04-07T12:06:53;100593.06;;;12.11;100.00
4586;BME280;2305;50.118;8.952;2023-04-07T12:09:33;100594.69;;;12.23;100.00
4586;BME280;2305;50.118;8.952;2023-04-07T12:12:05;100583.75;;;12.27;100.00
4586;BME280;2305;50.118;8.952;2023-04-07T12:14:36;100589.53;;;12.21;100.00
4586;BME280;2305;50.118;8.952;2023-04-07T12:17:04;100587.34;;;12.26;100.00
4586;BME280;2305;50.118;8.952;2023-04-07T12:19:36;100588.75;;;12.30;100.00
4586;BME280;2305;50.118;8.952;2023-04-07T12:22:05;100587.53;;;12.34;100.00
4586;BME280;2305;50.118;8.952;2023-04-07T12:24:35;100590.50;;;12.41;100.00
4586;BME280;2305;50.118;8.952;2023-04-07T12:27:03;100589.28;;;12.45;100.00
4586;BME280;2305;50.118;8.952;2023-04-07T12:29:32;100592.91;;;12.53;100.00
4586;BME280;2305;50.118;8.952;2023-04-07T12:32:00;100593.25;;;12.60;100.00
4586;BME280;2305;50.118;8.952;2023-04-07T12:34:30;100593.56;;;12.66;100.00
4586;BME280;2305;50.118;8.952;2023-04-07T12:37:00;100592.78;;;12.75;100.00
4586;BME280;2305;50.118;8.952;2023-04-07T12:39:28;100587.78;;;12.82;100.00
4586;BME280;2305;50.118;8.952;2023-04-07T12:41:58;100598.88;;;12.76;100.00
4586;BME280;2305;50.118;8.952;2023-04-07T12:44:26;100599.34;;;12.81;100.00
4586;BME280;2305;50.118;8.952;2023-04-07T12:46:56;100603.38;;;12.85;100.00
4586;BME280;2305;50.118;8.952;2023-04-07T12:49:24;100600.03;;;12.83;100.00
4586;BME280;2305;50.118;8.952;2023-04-07T12:51:53;100593.09;;;12.82;100.00
4586;BME280;2305;50.118;8.952;2023-04-07T12:54:21;100595.44;;;12.85;100.00
4586;BME280;2305;50.118;8.952;2023-04-07T12:56:49;100603.44;;;12.94;100.00
4586;BME280;2305;50.118;8.952;2023-04-07T12:59:19;100599.44;;;13.00;100.00
4586;BME280;2305;50.118;8.952;2023-04-07T13:01:48;100590.00;;;13.07;100.00
4586;BME280;2305;50.118;8.952;2023-04-07T13:04:19;100591.84;;;13.16;100.00
4586;BME280;2305;50.118;8.952;2023-04-07T13:06:47;100596.03;;;13.28;100.00
4586;BME280;2305;50.118;8.952;2023-04-07T13:09:15;100599.44;;;13.39;100.00
4586;BME280;2305;50.118;8.952;2023-04-07T13:11:42;100594.16;;;13.58;100.00
4586;BME280;2305;50.118;8.952;2023-04-07T13:14:11;100596.13;;;13.66;100.00
4586;BME280;2305;50.118;8.952;2023-04-07T13:16:41;100601.03;;;13.70;100.00
4586;BME280;2305;50.118;8.952;2023-04-07T13:19:12;100597.41;;;13.71;100.00
4586;BME280;2305;50.118;8.952;2023-04-07T13:21:41;100601.16;;;13.68;100.00
4586;BME280;2305;50.118;8.952;2023-04-07T13:24:13;100602.25;;;13.66;100.00
4586;BME280;2305;50.118;8.952;2023-04-07T13:26:46;100595.28;;;13.65;100.00
4586;BME280;2305;50.118;8.952;2023-04-07T13:29:16;100595.72;;;13.61;100.00